CFB Gagetown, New Brunswick

Past 24 Hour Conditions

This table is a summary of hourly weather conditions for the past 24 hours. This summary includes the following parameters: temperature, humidity, dew point, wind speed and direction, air pressure, visibility and/or wind chill and humidex.
Date / Time
(ADT)
Conditions Temp (°F) Humidity (%) Dew Point (°F) Wind (mph) Pressure (inches) Visibility (miles)
30 August 2014
11:00 Mostly Cloudy 65 58 50 SW 13 gust 18 30.2 15
10:00 Mostly Cloudy 62 69 51 SW 11 30.2 15
9:00 Mostly Cloudy 59 72 50 SW 8 30.2 15
8:00 Partly Cloudy 53 75 46 SSW 7 30.3 15
7:00 Partly Cloudy 48   82 42 SSW 6 30.3 15
6:00 Mainly Clear 50 78 43 S 7 30.2 15
5:00 Clear 51 76 44 SSW 7 30.2 15
4:00 Clear 51 77 44 S 7 30.2 15
3:00 Clear 52 76 45 SSW 9 30.2 15
2:00 Clear 51 77 45 SSW 7 30.2 15
1:00 Clear 53 74 45 S 9 30.2 15
00:00 Clear 54 75 46 S 9 30.2 15
29 August 2014
23:00 Clear 54 74 46 S 6 30.2 15
22:00 Clear 51 86 47 S 6 30.2 15
21:00 Mainly Clear 53 85 49 SSE 5 30.2 15
20:00 Mainly Sunny 60 67 49 SE 5 30.2 15
19:00 Sunny 64 55 48 ESE 6 30.2 15
18:00 Sunny 67 49 48 ESE 7 30.2 15
17:00 Sunny 69   45 47 NE 3 30.2 15
16:00 Sunny 68 46 46 NE 5 30.2 15
15:00 Mainly Sunny 68 46 46 NNE 8 30.2 15
14:00 Mainly Sunny 65 49 46 NE 8 30.2 15
13:00 Mainly Sunny 65 48 45 NNE 10 30.1 15
12:00 Mainly Sunny 64 53 46 NNE 9 30.1 15
11:00 Mainly Sunny 61 56 45 NNE 14 30.1 15
N/A
Not available
 ↑ 
Highest temperature
 ↓ 
Lowest temperature

If you require additional historical weather information, please visit Climate Data Online.